.
WxDataArchive / Data Records for 2016-01-06
2016-01-05 January 2016 2016-01-07

Data Records for Wednesday, 06 January 2016

Time	Temp	Chill	HIndex	Humid	Dewpt	 Wind 	HiWind	WindDir	Rain 	Barom
-----	----	-----	------	-----	-----	------	------	-------	-----	-----
00:00	20.2	20.2	20.2	72	12.6	0	0	---	0.00	30.450 
00:05	20.0	20.0	20.0	72	12.5	0	0	---	0.00	30.450 
00:10	19.7	19.7	19.7	72	12.2	0	0	---	0.00	30.450 
00:15	19.5	19.5	19.5	73	12.3	0	0	---	0.00	30.444 
00:20	19.4	19.4	19.4	73	12.2	0	0	---	0.00	30.444 
00:25	19.2	19.2	19.2	73	12.0	0	0	---	0.00	30.444 
00:30	19.1	19.1	19.1	73	11.9	0	0	---	0.00	30.444 
00:35	18.8	18.8	18.8	73	11.6	0	0	---	0.00	30.444 
00:40	18.6	18.6	18.6	74	11.7	0	0	---	0.00	30.444 
00:45	18.3	18.3	18.3	74	11.4	0	0	---	0.00	30.438 
00:50	18.1	18.1	18.1	74	11.2	0	0	---	0.00	30.438 
00:55	17.8	17.8	17.8	75	11.2	0	0	---	0.00	30.438 
01:00	17.7	17.7	17.7	75	11.1	0	0	---	0.00	30.436 
01:05	17.5	17.5	17.5	75	11.0	0	0	---	0.00	30.436 
01:10	17.3	17.3	17.3	76	11.1	0	0	---	0.00	30.436 
01:15	17.0	17.0	17.0	76	10.8	0	0	---	0.00	30.436 
01:20	17.0	17.0	17.0	77	11.1	0	0	---	0.00	30.436 
01:25	16.9	16.9	16.9	77	11.0	0	0	---	0.00	30.436 
01:30	16.7	16.7	16.7	77	10.8	0	0	---	0.00	30.433 
01:35	16.5	16.5	16.5	77	10.6	0	0	---	0.00	30.433 
01:40	16.5	16.5	16.5	78	10.9	0	0	---	0.00	30.433 
01:45	16.4	16.4	16.4	78	10.8	0	0	---	0.00	30.430 
01:50	16.2	16.2	16.2	78	10.6	0	0	---	0.00	30.430 
01:55	16.1	16.1	16.1	78	10.5	0	0	---	0.00	30.430 
02:00	16.1	16.1	16.1	79	10.8	0	0	---	0.00	30.430 
02:05	15.9	15.9	15.9	79	10.6	0	0	---	0.00	30.430 
02:10	15.7	15.7	15.7	79	10.4	0	0	---	0.00	30.430 
02:15	15.7	15.7	15.7	80	10.6	0	0	---	0.00	30.434 
02:20	15.6	15.6	15.6	80	10.6	0	0	---	0.00	30.434 
02:25	15.6	15.6	15.6	80	10.6	0	0	---	0.00	30.434 
02:30	15.6	15.6	15.6	80	10.6	0	0	---	0.00	30.435 
02:35	15.4	15.4	15.4	81	10.6	0	0	---	0.00	30.435 
02:40	15.4	15.4	15.4	81	10.6	0	0	---	0.00	30.435 
02:45	15.2	15.2	15.2	81	10.4	0	0	---	0.00	30.434 
02:50	15.1	15.1	15.1	81	10.3	0	0	---	0.00	30.434 
02:55	14.9	14.9	14.9	81	10.1	0	0	---	0.00	30.434 
03:00	14.9	14.9	14.9	81	10.1	0	0	---	0.00	30.437 
03:05	14.8	14.8	14.8	81	10.0	0	0	---	0.00	30.437 
03:10	14.8	14.8	14.8	82	10.3	0	0	---	0.00	30.437 
03:15	14.6	14.6	14.6	82	10.1	0	0	---	0.00	30.437 
03:20	14.6	14.6	14.6	82	10.1	0	0	---	0.00	30.437 
03:25	14.6	14.6	14.6	82	10.1	0	0	---	0.00	30.437 
03:30	14.4	14.4	14.4	82	9.9	0	0	---	0.00	30.437 
03:35	14.4	14.4	14.4	82	9.9	0	0	---	0.00	30.437 
03:40	14.3	14.3	14.3	83	10.1	0	0	---	0.00	30.437 
03:45	14.3	14.3	14.3	83	10.1	0	0	---	0.00	30.438 
03:50	14.1	14.1	14.1	83	9.9	0	0	---	0.00	30.438 
03:55	14.1	14.1	14.1	83	9.9	0	0	---	0.00	30.438 
04:00	14.0	14.0	14.0	83	9.8	0	0	---	0.00	30.433 
04:05	14.0	14.0	14.0	83	9.8	0	0	---	0.00	30.433 
04:10	13.8	13.8	13.8	83	9.6	0	0	---	0.00	30.433 
04:15	13.8	13.8	13.8	84	9.9	0	0	---	0.00	30.435 
04:20	13.8	13.8	13.8	84	9.9	0	0	---	0.00	30.435 
04:25	13.8	13.8	13.8	84	9.9	0	0	---	0.00	30.435 
04:30	13.6	13.6	13.6	84	9.7	0	0	---	0.00	30.429 
04:35	13.6	13.6	13.6	84	9.7	0	0	---	0.00	30.429 
04:40	13.5	13.5	13.5	84	9.6	0	0	---	0.00	30.429 
04:45	13.5	13.5	13.5	84	9.6	0	0	---	0.00	30.425 
04:50	13.5	13.5	13.5	84	9.6	0	0	---	0.00	30.425 
04:55	13.5	13.5	13.5	84	9.6	0	0	---	0.00	30.425 
05:00	13.3	13.3	13.3	84	9.4	0	0	---	0.00	30.425 
05:05	13.5	13.5	13.5	84	9.6	0	0	---	0.00	30.425 
05:10	13.5	13.5	13.5	85	9.8	0	0	---	0.00	30.425 
05:15	13.5	13.5	13.5	85	9.8	0	0	---	0.00	30.420 
05:20	13.5	13.5	13.5	85	9.8	0	0	---	0.00	30.420 
05:25	13.6	13.6	13.6	85	9.9	0	0	---	0.00	30.420 
05:30	13.6	13.6	13.6	85	9.9	0	0	---	0.00	30.418 
05:35	13.5	13.5	13.5	85	9.8	0	0	---	0.00	30.418 
05:40	13.5	13.5	13.5	85	9.8	0	0	---	0.00	30.418 
05:45	13.5	13.5	13.5	85	9.8	0	0	---	0.00	30.420 
05:50	13.5	13.5	13.5	85	9.8	0	0	---	0.00	30.420 
05:55	13.3	13.3	13.3	85	9.7	0	0	---	0.00	30.420 
06:00	13.3	13.3	13.3	85	9.7	0	0	---	0.00	30.425 
06:05	13.3	13.3	13.3	85	9.7	0	0	---	0.00	30.425 
06:10	13.3	13.3	13.3	85	9.7	0	0	---	0.00	30.425 
06:15	13.3	13.3	13.3	85	9.7	0	0	---	0.00	30.427 
06:20	13.5	13.5	13.5	85	9.8	0	0	---	0.00	30.427 
06:25	13.5	13.5	13.5	85	9.8	0	0	---	0.00	30.427 
06:30	13.5	13.5	13.5	85	9.8	0	0	---	0.00	30.422 
06:35	13.6	13.6	13.6	85	9.9	0	0	---	0.00	30.422 
06:40	13.6	13.6	13.6	85	9.9	0	0	---	0.00	30.422 
06:45	13.8	13.8	13.8	85	10.1	0	0	---	0.00	30.422 
06:50	13.8	13.8	13.8	85	10.1	0	0	---	0.00	30.422 
06:55	13.8	13.8	13.8	85	10.1	0	0	---	0.00	30.422 
07:00	13.6	13.6	13.6	85	9.9	0	0	---	0.00	30.422 
07:05	13.6	13.6	13.6	85	9.9	0	0	---	0.00	30.422 
07:10	13.6	13.6	13.6	85	9.9	0	0	---	0.00	30.422 
07:15	13.6	13.6	13.6	85	9.9	0	0	---	0.00	30.425 
07:20	13.5	13.5	13.5	85	9.8	0	0	---	0.00	30.425 
07:25	13.5	13.5	13.5	85	9.8	0	0	---	0.00	30.425 
07:30	13.5	13.5	13.5	85	9.8	0	0	---	0.00	30.422 
07:35	13.5	13.5	13.5	85	9.8	0	0	---	0.00	30.422 
07:40	13.5	13.5	13.5	85	9.8	0	0	---	0.00	30.422 
07:45	13.5	13.5	13.5	85	9.8	0	0	---	0.00	30.416 
07:50	13.6	13.6	13.6	85	9.9	0	0	---	0.00	30.416 
07:55	13.6	13.6	13.6	85	9.9	0	0	---	0.00	30.416 
08:00	13.6	13.6	13.6	85	9.9	0	0	---	0.00	30.415 
08:05	13.6	13.6	13.6	85	9.9	0	0	---	0.00	30.415 
08:10	13.6	13.6	13.6	86	10.2	0	0	---	0.00	30.415 
08:15	13.8	13.8	13.8	86	10.4	0	0	---	0.00	30.414 
08:20	13.8	13.8	13.8	86	10.4	0	0	---	0.00	30.414 
08:25	13.8	13.8	13.8	86	10.4	0	0	---	0.00	30.414 
08:30	14.0	14.0	14.0	86	10.6	0	0	---	0.00	30.412 
08:35	14.0	14.0	14.0	86	10.6	0	0	---	0.00	30.412 
08:40	14.1	14.1	14.1	86	10.7	0	0	---	0.00	30.412 
08:45	14.4	14.4	14.4	86	11.0	0	0	---	0.00	30.414 
08:50	14.6	14.6	14.6	86	11.2	0	0	---	0.00	30.414 
08:55	14.9	14.9	14.9	86	11.5	0	0	---	0.00	30.414 
09:00	15.2	15.2	15.2	86	11.8	0	0	---	0.00	30.414 
09:05	15.6	15.6	15.6	87	12.4	0	0	---	0.00	30.414 
09:10	15.9	15.9	15.9	87	12.7	0	0	---	0.00	30.414 
09:15	16.5	16.5	16.5	87	13.3	0	0	---	0.00	30.414 
09:20	17.2	17.2	17.2	87	14.0	0	0	---	0.00	30.414 
09:25	17.7	17.7	17.7	87	14.5	0	0	---	0.00	30.414 
09:30	18.4	18.4	18.4	87	15.2	0	1	90	0.00	30.415 
09:35	19.2	19.2	19.2	87	16.0	0	1	---	0.00	30.415 
09:40	20.0	20.0	20.0	86	16.5	0	0	---	0.00	30.415 
09:45	20.8	20.8	20.8	86	17.3	0	1	90	0.00	30.417 
09:50	21.6	21.6	21.6	85	17.8	0	1	90	0.00	30.417 
09:55	22.4	22.4	22.4	84	18.3	0	0	---	0.00	30.417 
10:00	23.0	23.0	23.0	82	18.3	0	2	90	0.00	30.416 
10:05	23.6	23.6	23.6	79	18.1	0	1	90	0.00	30.416 
10:10	24.2	24.2	24.2	77	18.1	0	2	90	0.00	30.416 
10:15	24.7	24.7	24.7	75	17.9	0	1	90	0.00	30.417 
10:20	25.3	25.3	25.3	74	18.2	0	0	---	0.00	30.417 
10:25	25.8	25.8	25.8	73	18.4	0	0	---	0.00	30.417 
10:30	26.3	26.3	26.3	72	18.5	0	1	90	0.00	30.414 
10:35	26.7	26.7	26.7	70	18.3	0	1	90	0.00	30.414 
10:40	27.2	27.2	27.2	69	18.4	0	1	90	0.00	30.414 
10:45	27.6	27.6	27.6	68	18.4	0	2	90	0.00	30.408 
10:50	27.9	27.9	27.9	67	18.4	0	1	90	0.00	30.408 
10:55	28.5	28.5	28.5	67	19.0	0	1	90	0.00	30.408 
11:00	29.1	29.1	29.1	66	19.2	0	2	90	0.00	30.408 
11:05	29.5	29.5	29.5	64	18.8	0	1	90	0.00	30.408 
11:10	30.0	30.0	30.0	64	19.3	0	1	90	0.00	30.408 
11:15	30.4	30.4	30.4	63	19.3	0	1	90	0.00	30.399 
11:20	30.9	30.9	30.9	62	19.4	0	1	90	0.00	30.399 
11:25	31.5	31.5	31.5	61	19.6	0	3	90	0.00	30.399 
11:30	31.8	31.8	31.8	60	19.5	0	1	90	0.00	30.391 
11:35	32.1	32.1	32.1	59	19.4	0	2	90	0.00	30.391 
11:40	32.4	32.4	32.4	58	19.3	0	2	90	0.00	30.391 
11:45	32.7	32.7	32.7	58	19.6	0	1	90	0.00	30.385 
11:50	33.2	33.2	33.2	58	20.0	0	2	90	0.00	30.385 
11:55	33.7	33.7	33.7	56	19.7	0	3	90	0.00	30.385 
12:00	34.1	34.1	34.1	56	20.1	0	2	90	0.00	30.378 
12:05	34.7	34.7	34.7	55	20.2	0	2	90	0.00	30.378 
12:10	35.0	35.0	35.0	54	20.1	0	2	90	0.00	30.378 
12:15	35.2	35.2	35.2	53	19.8	0	3	90	0.00	30.368 
12:20	35.3	35.3	35.3	54	20.3	0	2	90	0.00	30.368 
12:25	35.5	35.5	35.5	52	19.6	1	4	112	0.00	30.368 
12:30	35.6	35.6	35.6	52	19.7	1	3	248	0.00	30.355 
12:35	35.8	35.8	35.8	52	19.9	1	3	248	0.00	30.355 
12:40	36.0	36.0	36.0	52	20.1	0	3	248	0.00	30.355 
12:45	36.0	36.0	36.0	50	19.2	0	3	248	0.00	30.349 
12:50	36.2	36.2	36.2	52	20.3	0	2	248	0.00	30.349 
12:55	36.3	36.3	36.3	52	20.4	0	4	248	0.00	30.349 
13:00	36.6	36.6	36.6	52	20.7	0	3	248	0.00	30.345 
13:05	36.9	36.9	36.9	50	20.0	1	3	225	0.00	30.345 
13:10	37.2	37.2	37.2	50	20.3	1	3	225	0.00	30.345 
13:15	37.5	37.5	37.5	50	20.6	0	3	225	0.00	30.336 
13:20	37.6	37.6	37.6	49	20.2	1	3	225	0.00	30.336 
13:25	37.6	37.6	37.6	49	20.2	1	3	248	0.00	30.336 
13:30	37.8	37.8	37.8	48	19.9	1	4	248	0.00	30.328 
13:35	37.9	37.9	37.9	48	20.0	0	3	248	0.00	30.328 
13:40	37.9	37.9	37.9	48	20.0	1	3	248	0.00	30.328 
13:45	38.2	38.2	38.2	49	20.7	0	2	248	0.00	30.322 
13:50	38.2	38.2	38.2	48	20.3	1	3	248	0.00	30.322 
13:55	38.3	38.3	38.3	48	20.4	1	5	248	0.00	30.322 
14:00	38.5	38.5	38.5	48	20.5	1	3	248	0.00	30.317 
14:05	38.5	38.5	38.5	48	20.5	0	4	248	0.00	30.317 
14:10	38.6	38.6	38.6	47	20.1	0	2	248	0.00	30.317 
14:15	38.6	38.6	38.6	48	20.6	0	2	248	0.00	30.316 
14:20	38.6	38.6	38.6	48	20.6	0	5	112	0.00	30.316 
14:25	38.5	38.5	38.5	48	20.5	0	2	112	0.00	30.316 
14:30	38.5	38.5	38.5	49	21.0	0	1	112	0.00	30.309 
14:35	38.3	38.3	38.3	49	20.8	0	2	112	0.00	30.309 
14:40	38.2	38.2	38.2	49	20.7	0	4	68	0.00	30.309 
14:45	38.2	38.2	38.2	50	21.2	0	1	68	0.00	30.304 
14:50	38.3	38.3	38.3	50	21.3	0	1	68	0.00	30.304 
14:55	38.3	38.3	38.3	50	21.3	0	1	68	0.00	30.304 
15:00	38.5	38.5	38.5	50	21.5	0	1	68	0.00	30.300 
15:05	38.5	38.5	38.5	50	21.5	0	2	68	0.00	30.300 
15:10	38.5	38.5	38.5	50	21.5	0	1	68	0.00	30.300 
15:15	38.5	38.5	38.5	50	21.5	0	2	68	0.00	30.301 
15:20	38.5	38.5	38.5	50	21.5	0	1	68	0.00	30.301 
15:25	38.6	38.6	38.6	49	21.1	0	2	292	0.00	30.301 
15:30	38.6	38.6	38.6	49	21.1	0	2	270	0.00	30.297 
15:35	38.6	38.6	38.6	49	21.1	0	2	270	0.00	30.297 
15:40	38.5	38.5	38.5	49	21.0	0	2	270	0.00	30.297 
15:45	38.3	38.3	38.3	50	21.3	0	2	270	0.00	30.296 
15:50	38.3	38.3	38.3	50	21.3	0	1	270	0.00	30.296 
15:55	38.2	38.2	38.2	51	21.7	0	1	270	0.00	30.296 
16:00	38.0	38.0	38.0	51	21.5	0	1	270	0.00	30.296 
16:05	38.0	38.0	38.0	50	21.0	0	1	270	0.00	30.296 
16:10	38.0	38.0	38.0	50	21.0	0	1	270	0.00	30.296 
16:15	38.0	38.0	38.0	51	21.5	0	1	270	0.00	30.291 
16:20	38.0	38.0	38.0	51	21.5	0	1	270	0.00	30.291 
16:25	37.9	37.9	37.9	51	21.4	0	2	270	0.00	30.291 
16:30	37.8	37.8	37.8	51	21.3	0	1	270	0.00	30.290 
16:35	37.8	37.8	37.8	52	21.8	0	1	270	0.00	30.290 
16:40	37.5	37.5	37.5	52	21.5	0	0	---	0.00	30.290 
16:45	37.3	37.3	37.3	53	21.8	0	0	---	0.00	30.289 
16:50	37.0	37.0	37.0	54	21.9	0	1	270	0.00	30.289 
16:55	36.9	36.9	36.9	54	21.8	0	2	270	0.00	30.289 
17:00	36.6	36.6	36.6	54	21.5	0	0	---	0.00	30.289 
17:05	36.3	36.3	36.3	54	21.3	0	0	---	0.00	30.289 
17:10	36.0	36.0	36.0	55	21.4	0	0	---	0.00	30.289 
17:15	35.9	35.9	35.9	55	21.3	0	0	---	0.00	30.289 
17:20	35.6	35.6	35.6	55	21.0	0	0	---	0.00	30.289 
17:25	35.3	35.3	35.3	56	21.2	0	1	270	0.00	30.289 
17:30	35.2	35.2	35.2	56	21.1	0	1	270	0.00	30.289 
17:35	35.0	35.0	35.0	57	21.3	0	0	---	0.00	30.289 
17:40	34.7	34.7	34.7	58	21.5	0	0	---	0.00	30.289 
17:45	34.3	34.3	34.3	58	21.1	0	0	---	0.00	30.291 
17:50	34.1	34.1	34.1	58	20.9	0	0	---	0.00	30.291 
17:55	33.8	33.8	33.8	59	21.0	0	0	---	0.00	30.291 
18:00	33.7	33.7	33.7	59	20.9	0	1	270	0.00	30.289 
18:05	33.7	33.7	33.7	59	20.9	0	1	270	0.00	30.289 
18:10	33.7	33.7	33.7	59	20.9	0	0	---	0.00	30.289 
18:15	33.5	33.5	33.5	59	20.7	0	0	---	0.00	30.289 
18:20	33.2	33.2	33.2	59	20.4	0	0	---	0.00	30.289 
18:25	32.9	32.9	32.9	60	20.6	0	0	---	0.00	30.289 
18:30	32.7	32.7	32.7	60	20.4	0	0	---	0.00	30.291 
18:35	32.4	32.4	32.4	61	20.5	0	0	---	0.00	30.291 
18:40	32.1	32.1	32.1	62	20.6	0	0	---	0.00	30.291 
18:45	31.8	31.8	31.8	63	20.7	0	0	---	0.00	30.287 
18:50	31.5	31.5	31.5	64	20.7	0	0	---	0.00	30.287 
18:55	31.2	31.2	31.2	64	20.5	0	0	---	0.00	30.287 
19:00	30.9	30.9	30.9	65	20.5	0	0	---	0.00	30.289 
19:05	30.6	30.6	30.6	65	20.3	0	0	---	0.00	30.289 
19:10	30.3	30.3	30.3	66	20.3	0	0	---	0.00	30.289 
19:15	30.0	30.0	30.0	67	20.4	0	0	---	0.00	30.289 
19:20	29.8	29.8	29.8	68	20.5	0	0	---	0.00	30.289 
19:25	29.5	29.5	29.5	68	20.3	0	0	---	0.00	30.289 
19:30	29.4	29.4	29.4	69	20.5	0	0	---	0.00	30.292 
19:35	29.1	29.1	29.1	69	20.2	0	0	---	0.00	30.292 
19:40	29.0	29.0	29.0	70	20.5	0	0	---	0.00	30.292 
19:45	28.7	28.7	28.7	70	20.2	0	0	---	0.00	30.292 
19:50	28.5	28.5	28.5	71	20.3	0	0	---	0.00	30.292 
19:55	28.4	28.4	28.4	72	20.5	0	0	---	0.00	30.292 
20:00	28.4	28.4	28.4	72	20.5	0	0	---	0.00	30.294 
20:05	28.1	28.1	28.1	72	20.3	0	0	---	0.00	30.294 
20:10	27.9	27.9	27.9	73	20.4	0	0	---	0.00	30.294 
20:15	27.8	27.8	27.8	73	20.3	0	0	---	0.00	30.292 
20:20	27.6	27.6	27.6	74	20.4	0	0	---	0.00	30.292 
20:25	27.5	27.5	27.5	74	20.3	0	0	---	0.00	30.292 
20:30	27.3	27.3	27.3	74	20.1	0	0	---	0.00	30.292 
20:35	27.2	27.2	27.2	74	20.0	0	0	---	0.00	30.292 
20:40	27.0	27.0	27.0	75	20.2	0	0	---	0.00	30.292 
20:45	26.9	26.9	26.9	75	20.1	0	0	---	0.00	30.294 
20:50	26.9	26.9	26.9	76	20.4	0	0	---	0.00	30.294 
20:55	26.7	26.7	26.7	76	20.2	0	0	---	0.00	30.294 
21:00	26.7	26.7	26.7	77	20.5	0	0	---	0.00	30.295 
21:05	26.7	26.7	26.7	77	20.5	0	0	---	0.00	30.295 
21:10	26.7	26.7	26.7	77	20.5	0	0	---	0.00	30.295 
21:15	26.6	26.6	26.6	77	20.4	0	0	---	0.00	30.287 
21:20	26.4	26.4	26.4	77	20.2	0	0	---	0.00	30.287 
21:25	26.3	26.3	26.3	77	20.1	0	0	---	0.00	30.287 
21:30	26.1	26.1	26.1	77	19.9	0	0	---	0.00	30.285 
21:35	26.0	26.0	26.0	77	19.8	0	0	---	0.00	30.285 
21:40	25.8	25.8	25.8	77	19.6	0	0	---	0.00	30.285 
21:45	25.7	25.7	25.7	78	19.8	0	0	---	0.00	30.284 
21:50	25.7	25.7	25.7	79	20.1	0	0	---	0.00	30.284 
21:55	25.7	25.7	25.7	79	20.1	0	0	---	0.00	30.284 
22:00	25.8	25.8	25.8	79	20.2	0	0	---	0.00	30.280 
22:05	25.8	25.8	25.8	79	20.2	0	0	---	0.00	30.280 
22:10	26.0	26.0	26.0	79	20.4	0	0	---	0.00	30.280 
22:15	26.0	26.0	26.0	79	20.4	0	0	---	0.00	30.271 
22:20	26.0	26.0	26.0	79	20.4	0	0	---	0.00	30.271 
22:25	26.0	26.0	26.0	79	20.4	0	0	---	0.00	30.271 
22:30	26.1	26.1	26.1	79	20.5	0	0	---	0.00	30.270 
22:35	26.3	26.3	26.3	79	20.7	0	0	---	0.00	30.270 
22:40	26.4	26.4	26.4	79	20.8	0	0	---	0.00	30.270 
22:45	26.6	26.6	26.6	79	21.0	0	1	270	0.00	30.266 
22:50	26.7	26.7	26.7	79	21.1	0	0	---	0.00	30.266 
22:55	26.9	26.9	26.9	79	21.3	0	0	---	0.00	30.266 
23:00	27.0	27.0	27.0	79	21.4	0	0	---	0.00	30.267 
23:05	27.2	27.2	27.2	79	21.6	0	0	---	0.00	30.267 
23:10	27.3	27.3	27.3	79	21.7	0	0	---	0.00	30.267 
23:15	27.3	27.3	27.3	79	21.7	0	0	---	0.00	30.264 
23:20	27.3	27.3	27.3	78	21.4	0	0	---	0.00	30.264 
23:25	27.2	27.2	27.2	78	21.3	0	0	---	0.00	30.264 
23:30	27.2	27.2	27.2	78	21.3	0	0	---	0.00	30.263 
23:35	27.0	27.0	27.0	78	21.1	0	0	---	0.00	30.263 
23:40	26.7	26.7	26.7	78	20.8	0	0	---	0.00	30.263 
23:45	26.6	26.6	26.6	79	21.0	0	0	---	0.00	30.262 
23:50	26.4	26.4	26.4	79	20.8	0	0	---	0.00	30.262 
23:55	26.3	26.3	26.3	79	20.7	0	0	---	0.00	30.262 

CoCoRaHS
IN-AL-39
A2 Web Hosting
Creative Commons License
GoDaddy
search engine by freefind advanced

loaded 2018-11-15 18:33:41 • last modified 2010-11-18 10:43:29
Privacy PolicyDisclaimer
• wx.awcolley.com is powered by PmWiki v.2002016 •
• all content (unless otherwise noted) © 2018 A W Colley